sensor_id;sensor_type;location;lat;lon;timestamp;pressure;altitude;pressure_sealevel;temperature;humidity
69219;BME280;56232;53.384;-2.732;2023-06-10T00:00:12;101187.25;;;14.50;26.85
69219;BME280;56232;53.384;-2.732;2023-06-10T00:02:37;101188.29;;;14.45;27.51
69219;BME280;56232;53.384;-2.732;2023-06-10T00:05:03;101188.32;;;13.70;27.40
69219;BME280;56232;53.384;-2.732;2023-06-10T00:07:28;101189.79;;;14.51;26.78
69219;BME280;56232;53.384;-2.732;2023-06-10T00:09:54;101191.23;;;13.98;27.15
69219;BME280;56232;53.384;-2.732;2023-06-10T00:12:20;101190.92;;;13.82;27.63
69219;BME280;56232;53.384;-2.732;2023-06-10T00:14:45;101195.40;;;13.80;28.05
69219;BME280;56232;53.384;-2.732;2023-06-10T00:17:10;101194.68;;;14.29;27.29
69219;BME280;56232;53.384;-2.732;2023-06-10T00:19:36;101197.21;;;14.25;28.46
69219;BME280;56232;53.384;-2.732;2023-06-10T00:22:02;101196.36;;;13.87;26.50
69219;BME280;56232;53.384;-2.732;2023-06-10T00:24:27;101194.69;;;14.07;26.95
69219;BME280;56232;53.384;-2.732;2023-06-10T00:26:53;101194.01;;;14.13;26.59
69219;BME280;56232;53.384;-2.732;2023-06-10T00:29:19;101190.74;;;14.62;26.60
69219;BME280;56232;53.384;-2.732;2023-06-10T00:31:45;101189.46;;;14.93;26.47
69219;BME280;56232;53.384;-2.732;2023-06-10T00:34:09;101186.36;;;14.29;26.76
69219;BME280;56232;53.384;-2.732;2023-06-10T00:36:35;101184.08;;;14.24;26.83
69219;BME280;56232;53.384;-2.732;2023-06-10T00:39:00;101185.51;;;13.78;26.29
69219;BME280;56232;53.384;-2.732;2023-06-10T00:41:26;101182.29;;;14.33;26.17
69219;BME280;56232;53.384;-2.732;2023-06-10T00:43:51;101179.67;;;14.93;26.30
69219;BME280;56232;53.384;-2.732;2023-06-10T00:46:16;101179.58;;;14.07;27.92
69219;BME280;56232;53.384;-2.732;2023-06-10T00:48:42;101179.83;;;13.57;26.98
69219;BME280;56232;53.384;-2.732;2023-06-10T00:51:07;101183.03;;;14.03;27.59
69219;BME280;56232;53.384;-2.732;2023-06-10T00:53:33;101182.02;;;14.53;26.96
69219;BME280;56232;53.384;-2.732;2023-06-10T00:55:59;101180.48;;;14.21;27.71
69219;BME280;56232;53.384;-2.732;2023-06-10T00:58:24;101181.21;;;14.12;29.13
69219;BME280;56232;53.384;-2.732;2023-06-10T01:00:51;101182.52;;;13.97;28.09
69219;BME280;56232;53.384;-2.732;2023-06-10T01:03:16;101181.23;;;13.92;28.49
69219;BME280;56232;53.384;-2.732;2023-06-10T01:05:41;101183.58;;;13.91;28.54
69219;BME280;56232;53.384;-2.732;2023-06-10T01:08:11;101183.37;;;13.33;27.71
69219;BME280;56232;53.384;-2.732;2023-06-10T01:10:35;101180.39;;;13.93;26.75
69219;BME280;56232;53.384;-2.732;2023-06-10T01:13:00;101176.05;;;13.82;27.90
69219;BME280;56232;53.384;-2.732;2023-06-10T01:15:23;101175.28;;;13.58;28.80
69219;BME280;56232;53.384;-2.732;2023-06-10T01:17:54;101176.53;;;13.63;28.40
69219;BME280;56232;53.384;-2.732;2023-06-10T01:20:14;101174.70;;;13.50;28.26
69219;BME280;56232;53.384;-2.732;2023-06-10T01:22:39;101176.27;;;13.49;28.84
69219;BME280;56232;53.384;-2.732;2023-06-10T01:25:05;101172.71;;;13.53;27.85
69219;BME280;56232;53.384;-2.732;2023-06-10T01:27:37;101175.09;;;13.02;28.74
69219;BME280;56232;53.384;-2.732;2023-06-10T01:29:59;101174.90;;;13.69;27.86
69219;BME280;56232;53.384;-2.732;2023-06-10T01:32:25;101176.83;;;13.55;27.53
69219;BME280;56232;53.384;-2.732;2023-06-10T01:34:46;101172.94;;;13.70;26.69
69219;BME280;56232;53.384;-2.732;2023-06-10T01:37:13;101175.26;;;12.65;27.07
69219;BME280;56232;53.384;-2.732;2023-06-10T01:39:37;101176.18;;;13.89;27.38
69219;BME280;56232;53.384;-2.732;2023-06-10T01:42:03;101179.26;;;13.38;26.66
69219;BME280;56232;53.384;-2.732;2023-06-10T01:44:28;101177.76;;;14.03;26.67
69219;BME280;56232;53.384;-2.732;2023-06-10T01:46:53;101178.18;;;14.07;27.92
69219;BME280;56232;53.384;-2.732;2023-06-10T01:49:18;101178.45;;;14.09;27.10
69219;BME280;56232;53.384;-2.732;2023-06-10T01:51:44;101175.09;;;14.23;26.40
69219;BME280;56232;53.384;-2.732;2023-06-10T01:54:09;101171.42;;;14.08;26.48
69219;BME280;56232;53.384;-2.732;2023-06-10T01:56:34;101171.27;;;14.08;27.00
69219;BME280;56232;53.384;-2.732;2023-06-10T01:59:00;101173.07;;;13.93;26.33
69219;BME280;56232;53.384;-2.732;2023-06-10T02:01:25;101172.27;;;13.83;26.68
69219;BME280;56232;53.384;-2.732;2023-06-10T02:03:51;101166.81;;;13.83;26.81
69219;BME280;56232;53.384;-2.732;2023-06-10T02:06:16;101166.37;;;12.65;26.10
69219;BME280;56232;53.384;-2.732;2023-06-10T02:08:41;101161.21;;;13.08;26.81
69219;BME280;56232;53.384;-2.732;2023-06-10T02:11:07;101161.82;;;13.64;26.67
69219;BME280;56232;53.384;-2.732;2023-06-10T02:13:32;101156.67;;;13.72;26.02
69219;BME280;56232;53.384;-2.732;2023-06-10T02:15:58;101148.50;;;13.65;26.84
69219;BME280;56232;53.384;-2.732;2023-06-10T02:18:23;101145.22;;;13.41;26.75
69219;BME280;56232;53.384;-2.732;2023-06-10T02:20:49;101144.98;;;13.52;26.71
69219;BME280;56232;53.384;-2.732;2023-06-10T02:23:14;101140.57;;;13.43;25.91
69219;BME280;56232;53.384;-2.732;2023-06-10T02:25:39;101139.09;;;13.48;25.83
69219;BME280;56232;53.384;-2.732;2023-06-10T02:28:04;101135.47;;;12.99;25.74
69219;BME280;56232;53.384;-2.732;2023-06-10T02:30:30;101132.32;;;13.00;26.79
69219;BME280;56232;53.384;-2.732;2023-06-10T02:32:55;101127.04;;;13.53;27.19
69219;BME280;56232;53.384;-2.732;2023-06-10T02:35:20;101122.42;;;13.53;26.75
69219;BME280;56232;53.384;-2.732;2023-06-10T02:37:46;101118.69;;;13.50;27.75
69219;BME280;56232;53.384;-2.732;2023-06-10T02:40:11;101114.76;;;13.32;26.84
69219;BME280;56232;53.384;-2.732;2023-06-10T02:42:37;101111.60;;;13.01;27.72
69219;BME280;56232;53.384;-2.732;2023-06-10T02:45:03;101110.48;;;13.45;26.89
69219;BME280;56232;53.384;-2.732;2023-06-10T02:47:28;101111.10;;;14.01;26.73
69219;BME280;56232;53.384;-2.732;2023-06-10T02:49:53;101116.32;;;14.02;26.45
69219;BME280;56232;53.384;-2.732;2023-06-10T02:52:19;101114.40;;;12.93;27.48
69219;BME280;56232;53.384;-2.732;2023-06-10T02:54:44;101117.48;;;13.58;26.70
69219;BME280;56232;53.384;-2.732;2023-06-10T02:57:10;101116.68;;;13.20;26.60
69219;BME280;56232;53.384;-2.732;2023-06-10T02:59:35;101113.57;;;13.19;26.70
69219;BME280;56232;53.384;-2.732;2023-06-10T03:02:01;101113.05;;;13.76;26.21
69219;BME280;56232;53.384;-2.732;2023-06-10T03:04:26;101112.51;;;13.33;26.25
69219;BME280;56232;53.384;-2.732;2023-06-10T03:06:52;101112.17;;;13.35;26.66
69219;BME280;56232;53.384;-2.732;2023-06-10T03:09:17;101116.06;;;13.33;28.04
69219;BME280;56232;53.384;-2.732;2023-06-10T03:11:43;101118.71;;;12.73;28.13
69219;BME280;56232;53.384;-2.732;2023-06-10T03:14:08;101117.25;;;13.16;27.12
69219;BME280;56232;53.384;-2.732;2023-06-10T03:16:33;101118.88;;;13.21;26.45
69219;BME280;56232;53.384;-2.732;2023-06-10T03:18:59;101118.74;;;13.20;26.06
69219;BME280;56232;53.384;-2.732;2023-06-10T03:21:25;101117.39;;;13.74;27.02
69219;BME280;56232;53.384;-2.732;2023-06-10T03:23:50;101113.79;;;13.53;26.63
69219;BME280;56232;53.384;-2.732;2023-06-10T03:26:16;101113.47;;;13.08;26.03
69219;BME280;56232;53.384;-2.732;2023-06-10T03:28:41;101117.48;;;13.53;26.45
69219;BME280;56232;53.384;-2.732;2023-06-10T03:31:07;101116.53;;;12.98;26.92
69219;BME280;56232;53.384;-2.732;2023-06-10T03:33:32;101113.86;;;13.03;27.20
69219;BME280;56232;53.384;-2.732;2023-06-10T03:35:58;101112.31;;;12.90;26.96
69219;BME280;56232;53.384;-2.732;2023-06-10T03:38:22;101113.97;;;12.91;26.78
69219;BME280;56232;53.384;-2.732;2023-06-10T03:40:48;101111.35;;;12.83;26.92
69219;BME280;56232;53.384;-2.732;2023-06-10T03:43:14;101112.33;;;13.03;26.33
69219;BME280;56232;53.384;-2.732;2023-06-10T03:45:39;101111.26;;;13.23;26.55
69219;BME280;56232;53.384;-2.732;2023-06-10T03:48:05;101109.88;;;13.35;26.49
69219;BME280;56232;53.384;-2.732;2023-06-10T03:50:30;101112.24;;;13.44;25.97
69219;BME280;56232;53.384;-2.732;2023-06-10T03:52:56;101114.40;;;13.54;25.90
69219;BME280;56232;53.384;-2.732;2023-06-10T03:55:21;101112.11;;;13.66;25.46
69219;BME280;56232;53.384;-2.732;2023-06-10T03:57:47;101112.08;;;13.84;25.62
69219;BME280;56232;53.384;-2.732;2023-06-10T04:00:13;101106.42;;;13.75;25.46
69219;BME280;56232;53.384;-2.732;2023-06-10T04:02:38;101101.78;;;13.81;25.58
69219;BME280;56232;53.384;-2.732;2023-06-10T04:05:04;101100.03;;;12.71;25.06
69219;BME280;56232;53.384;-2.732;2023-06-10T04:07:29;101102.70;;;13.73;25.85
69219;BME280;56232;53.384;-2.732;2023-06-10T04:09:54;101104.35;;;13.58;25.52
69219;BME280;56232;53.384;-2.732;2023-06-10T04:12:19;101102.16;;;13.62;25.40
69219;BME280;56232;53.384;-2.732;2023-06-10T04:14:45;101102.26;;;14.19;25.57
69219;BME280;56232;53.384;-2.732;2023-06-10T04:17:11;101099.02;;;13.73;26.58
69219;BME280;56232;53.384;-2.732;2023-06-10T04:19:36;101101.15;;;13.48;26.00
69219;BME280;56232;53.384;-2.732;2023-06-10T04:22:02;101098.57;;;13.52;25.35
69219;BME280;56232;53.384;-2.732;2023-06-10T04:24:27;101097.20;;;13.52;25.57
69219;BME280;56232;53.384;-2.732;2023-06-10T04:26:53;101097.65;;;13.60;25.74
69219;BME280;56232;53.384;-2.732;2023-06-10T04:29:18;101095.38;;;13.14;25.77
69219;BME280;56232;53.384;-2.732;2023-06-10T04:31:43;101093.72;;;13.78;25.91
69219;BME280;56232;53.384;-2.732;2023-06-10T04:34:09;101096.71;;;13.77;26.75
69219;BME280;56232;53.384;-2.732;2023-06-10T04:36:35;101092.99;;;13.50;26.24
69219;BME280;56232;53.384;-2.732;2023-06-10T04:39:00;101090.96;;;13.65;26.04
69219;BME280;56232;53.384;-2.732;2023-06-10T04:41:26;101091.99;;;13.68;25.75
69219;BME280;56232;53.384;-2.732;2023-06-10T04:43:51;101090.98;;;13.93;27.47
69219;BME280;56232;53.384;-2.732;2023-06-10T04:46:16;101090.00;;;13.79;27.49
69219;BME280;56232;53.384;-2.732;2023-06-10T04:48:42;101090.92;;;13.80;27.44
69219;BME280;56232;53.384;-2.732;2023-06-10T04:51:07;101090.58;;;13.84;27.20
69219;BME280;56232;53.384;-2.732;2023-06-10T04:53:33;101095.74;;;13.97;26.23
69219;BME280;56232;53.384;-2.732;2023-06-10T04:55:59;101092.27;;;14.34;27.31
69219;BME280;56232;53.384;-2.732;2023-06-10T04:58:24;101086.56;;;14.11;27.24
69219;BME280;56232;53.384;-2.732;2023-06-10T05:00:49;101080.82;;;14.18;28.05
69219;BME280;56232;53.384;-2.732;2023-06-10T05:03:14;101080.89;;;14.27;27.27
69219;BME280;56232;53.384;-2.732;2023-06-10T05:05:39;101083.24;;;13.74;27.38
69219;BME280;56232;53.384;-2.732;2023-06-10T05:08:05;101083.19;;;14.00;27.55
69219;BME280;56232;53.384;-2.732;2023-06-10T05:10:30;101082.19;;;14.66;26.89
69219;BME280;56232;53.384;-2.732;2023-06-10T05:12:55;101086.62;;;13.99;27.24
69219;BME280;56232;53.384;-2.732;2023-06-10T05:15:20;101084.49;;;14.80;26.71
69219;BME280;56232;53.384;-2.732;2023-06-10T05:17:45;101079.64;;;14.98;25.95
69219;BME280;56232;53.384;-2.732;2023-06-10T05:20:11;101085.87;;;15.15;27.02
69219;BME280;56232;53.384;-2.732;2023-06-10T05:22:36;101090.43;;;15.00;27.42
69219;BME280;56232;53.384;-2.732;2023-06-10T05:25:02;101093.79;;;15.28;27.57
69219;BME280;56232;53.384;-2.732;2023-06-10T05:27:27;101092.41;;;15.38;27.26
69219;BME280;56232;53.384;-2.732;2023-06-10T05:29:52;101092.12;;;14.73;27.98
69219;BME280;56232;53.384;-2.732;2023-06-10T05:32:18;101088.21;;;14.83;27.18
69219;BME280;56232;53.384;-2.732;2023-06-10T05:34:43;101090.08;;;15.63;28.49
69219;BME280;56232;53.384;-2.732;2023-06-10T05:37:09;101087.01;;;15.62;26.80
69219;BME280;56232;53.384;-2.732;2023-06-10T05:39:35;101090.21;;;16.01;26.80
69219;BME280;56232;53.384;-2.732;2023-06-10T05:42:00;101092.67;;;15.32;26.85
69219;BME280;56232;53.384;-2.732;2023-06-10T05:44:25;101092.05;;;15.89;26.88
69219;BME280;56232;53.384;-2.732;2023-06-10T05:46:51;101089.32;;;15.40;28.17
69219;BME280;56232;53.384;-2.732;2023-06-10T05:49:17;101089.19;;;15.06;27.81
69219;BME280;56232;53.384;-2.732;2023-06-10T05:51:43;101094.01;;;16.03;26.91
69219;BME280;56232;53.384;-2.732;2023-06-10T05:54:08;101103.11;;;16.12;27.33
69219;BME280;56232;53.384;-2.732;2023-06-10T05:56:34;101106.27;;;16.08;27.24
69219;BME280;56232;53.384;-2.732;2023-06-10T05:59:00;101106.79;;;16.14;27.44
69219;BME280;56232;53.384;-2.732;2023-06-10T06:01:25;101106.53;;;16.51;27.19
69219;BME280;56232;53.384;-2.732;2023-06-10T06:03:50;101105.88;;;15.91;27.84
69219;BME280;56232;53.384;-2.732;2023-06-10T06:06:15;101111.73;;;16.92;27.00
69219;BME280;56232;53.384;-2.732;2023-06-10T06:08:41;101109.24;;;16.78;25.66
69219;BME280;56232;53.384;-2.732;2023-06-10T06:11:06;101107.58;;;17.12;26.59
69219;BME280;56232;53.384;-2.732;2023-06-10T06:13:32;101108.70;;;18.54;26.00
69219;BME280;56232;53.384;-2.732;2023-06-10T06:15:58;101107.65;;;20.34;23.99
69219;BME280;56232;53.384;-2.732;2023-06-10T06:18:22;101107.21;;;22.23;23.40
69219;BME280;56232;53.384;-2.732;2023-06-10T06:20:49;101101.17;;;23.57;22.22
69219;BME280;56232;53.384;-2.732;2023-06-10T06:23:14;101103.74;;;24.21;21.08
69219;BME280;56232;53.384;-2.732;2023-06-10T06:25:39;101104.37;;;24.89;20.32
69219;BME280;56232;53.384;-2.732;2023-06-10T06:28:06;101096.85;;;23.29;20.09
69219;BME280;56232;53.384;-2.732;2023-06-10T06:30:30;101096.86;;;22.13;20.64
69219;BME280;56232;53.384;-2.732;2023-06-10T06:32:56;101089.86;;;22.32;21.48
69219;BME280;56232;53.384;-2.732;2023-06-10T06:35:21;101095.88;;;21.60;21.91
69219;BME280;56232;53.384;-2.732;2023-06-10T06:37:46;101096.42;;;21.88;21.32
69219;BME280;56232;53.384;-2.732;2023-06-10T06:40:12;101096.22;;;22.00;21.14
69219;BME280;56232;53.384;-2.732;2023-06-10T06:42:37;101096.53;;;23.60;21.28
69219;BME280;56232;53.384;-2.732;2023-06-10T06:45:04;101093.60;;;24.77;20.61
69219;BME280;56232;53.384;-2.732;2023-06-10T06:47:28;101098.38;;;24.41;20.27
69219;BME280;56232;53.384;-2.732;2023-06-10T06:49:54;101107.90;;;27.48;18.52
69219;BME280;56232;53.384;-2.732;2023-06-10T06:52:19;101104.84;;;25.95;18.83
69219;BME280;56232;53.384;-2.732;2023-06-10T06:54:44;101110.97;;;27.15;18.46
69219;BME280;56232;53.384;-2.732;2023-06-10T06:57:09;101101.24;;;29.80;17.04
69219;BME280;56232;53.384;-2.732;2023-06-10T06:59:35;101102.53;;;31.28;16.09
69219;BME280;56232;53.384;-2.732;2023-06-10T07:02:01;101097.75;;;33.17;14.62
69219;BME280;56232;53.384;-2.732;2023-06-10T07:04:26;101098.06;;;33.41;13.99
69219;BME280;56232;53.384;-2.732;2023-06-10T07:06:51;101098.30;;;32.46;14.47
69219;BME280;56232;53.384;-2.732;2023-06-10T07:09:16;101099.79;;;31.45;14.53
69219;BME280;56232;53.384;-2.732;2023-06-10T07:11:42;101098.98;;;32.75;13.65
69219;BME280;56232;53.384;-2.732;2023-06-10T07:14:07;101100.92;;;34.56;13.06
69219;BME280;56232;53.384;-2.732;2023-06-10T07:16:33;101102.06;;;35.24;12.00
69219;BME280;56232;53.384;-2.732;2023-06-10T07:18:58;101097.21;;;36.37;11.82
69219;BME280;56232;53.384;-2.732;2023-06-10T07:21:23;101096.69;;;37.31;11.06
69219;BME280;56232;53.384;-2.732;2023-06-10T07:23:49;101092.50;;;37.56;10.36
69219;BME280;56232;53.384;-2.732;2023-06-10T07:26:14;101089.58;;;37.63;10.75
69219;BME280;56232;53.384;-2.732;2023-06-10T07:28:40;101092.01;;;36.75;10.27
69219;BME280;56232;53.384;-2.732;2023-06-10T07:31:07;101094.15;;;37.55;10.48
69219;BME280;56232;53.384;-2.732;2023-06-10T07:33:31;101096.16;;;38.30;10.47
69219;BME280;56232;53.384;-2.732;2023-06-10T07:35:57;101092.50;;;37.89;10.06
69219;BME280;56232;53.384;-2.732;2023-06-10T07:38:22;101093.36;;;38.27;9.90
69219;BME280;56232;53.384;-2.732;2023-06-10T07:40:48;101093.43;;;38.63;9.72
69219;BME280;56232;53.384;-2.732;2023-06-10T07:43:13;101091.18;;;37.80;9.84
69219;BME280;56232;53.384;-2.732;2023-06-10T07:45:39;101088.73;;;38.52;9.84
69219;BME280;56232;53.384;-2.732;2023-06-10T07:48:04;101087.42;;;37.59;9.80
69219;BME280;56232;53.384;-2.732;2023-06-10T07:50:29;101089.53;;;38.77;9.76
69219;BME280;56232;53.384;-2.732;2023-06-10T07:52:55;101087.85;;;38.61;9.63
69219;BME280;56232;53.384;-2.732;2023-06-10T07:55:21;101091.20;;;38.49;9.67
69219;BME280;56232;53.384;-2.732;2023-06-10T07:57:47;101094.45;;;38.78;9.56
69219;BME280;56232;53.384;-2.732;2023-06-10T08:00:12;101091.42;;;38.37;9.69
69219;BME280;56232;53.384;-2.732;2023-06-10T08:02:37;101093.61;;;38.65;9.65
69219;BME280;56232;53.384;-2.732;2023-06-10T08:05:04;101094.55;;;38.86;9.84
69219;BME280;56232;53.384;-2.732;2023-06-10T08:07:29;101096.83;;;39.45;9.64
69219;BME280;56232;53.384;-2.732;2023-06-10T08:09:54;101093.18;;;39.20;9.54
69219;BME280;56232;53.384;-2.732;2023-06-10T08:12:20;101090.19;;;39.72;9.54
69219;BME280;56232;53.384;-2.732;2023-06-10T08:14:45;101087.12;;;39.87;9.33
69219;BME280;56232;53.384;-2.732;2023-06-10T08:17:11;101090.21;;;39.02;9.47
69219;BME280;56232;53.384;-2.732;2023-06-10T08:19:36;101091.04;;;40.37;9.45
69219;BME280;56232;53.384;-2.732;2023-06-10T08:22:01;101090.42;;;39.71;9.28
69219;BME280;56232;53.384;-2.732;2023-06-10T08:24:26;101088.56;;;39.09;9.49
69219;BME280;56232;53.384;-2.732;2023-06-10T08:26:51;101086.81;;;40.32;9.45
69219;BME280;56232;53.384;-2.732;2023-06-10T08:29:17;101080.80;;;39.56;9.27
69219;BME280;56232;53.384;-2.732;2023-06-10T08:31:42;101077.09;;;39.63;9.41
69219;BME280;56232;53.384;-2.732;2023-06-10T08:34:07;101069.98;;;39.16;9.45
69219;BME280;56232;53.384;-2.732;2023-06-10T08:36:33;101066.73;;;39.26;9.62
69219;BME280;56232;53.384;-2.732;2023-06-10T08:38:59;101069.24;;;39.96;9.53
69219;BME280;56232;53.384;-2.732;2023-06-10T08:41:25;101071.71;;;40.50;9.31
69219;BME280;56232;53.384;-2.732;2023-06-10T08:43:59;101068.56;;;40.26;9.44
69219;BME280;56232;53.384;-2.732;2023-06-10T08:46:15;101071.00;;;39.28;9.41
69219;BME280;56232;53.384;-2.732;2023-06-10T08:48:42;101065.84;;;40.86;9.28
69219;BME280;56232;53.384;-2.732;2023-06-10T08:51:06;101066.18;;;40.35;9.07
69219;BME280;56232;53.384;-2.732;2023-06-10T08:53:33;101070.09;;;40.03;9.16
69219;BME280;56232;53.384;-2.732;2023-06-10T08:55:59;101068.19;;;39.42;9.24
69219;BME280;56232;53.384;-2.732;2023-06-10T08:58:22;101068.06;;;39.23;9.41
69219;BME280;56232;53.384;-2.732;2023-06-10T09:00:47;101065.82;;;38.48;9.62
69219;BME280;56232;53.384;-2.732;2023-06-10T09:03:13;101066.51;;;38.94;9.74
69219;BME280;56232;53.384;-2.732;2023-06-10T09:05:38;101066.70;;;38.63;9.97
69219;BME280;56232;53.384;-2.732;2023-06-10T09:08:05;101072.12;;;39.31;10.01
69219;BME280;56232;53.384;-2.732;2023-06-10T09:10:29;101069.25;;;38.93;9.95
69219;BME280;56232;53.384;-2.732;2023-06-10T09:12:54;101062.86;;;40.19;9.86
69219;BME280;56232;53.384;-2.732;2023-06-10T09:15:20;101062.71;;;39.76;9.43
69219;BME280;56232;53.384;-2.732;2023-06-10T09:17:45;101058.76;;;39.79;9.79
69219;BME280;56232;53.384;-2.732;2023-06-10T09:20:15;101058.74;;;39.55;9.93
69219;BME280;56232;53.384;-2.732;2023-06-10T09:22:36;101061.78;;;39.21;9.96
69219;BME280;56232;53.384;-2.732;2023-06-10T09:25:02;101060.58;;;40.39;9.91
69219;BME280;56232;53.384;-2.732;2023-06-10T09:27:29;101056.02;;;40.61;9.71
69219;BME280;56232;53.384;-2.732;2023-06-10T09:29:53;101055.84;;;40.79;9.48
69219;BME280;56232;53.384;-2.732;2023-06-10T09:32:18;101054.55;;;40.93;9.64
69219;BME280;56232;53.384;-2.732;2023-06-10T09:34:43;101048.02;;;41.56;9.36
69219;BME280;56232;53.384;-2.732;2023-06-10T09:37:08;101050.44;;;40.91;9.38
69219;BME280;56232;53.384;-2.732;2023-06-10T09:39:34;101049.66;;;40.83;9.44
69219;BME280;56232;53.384;-2.732;2023-06-10T09:42:00;101049.91;;;40.72;9.49
69219;BME280;56232;53.384;-2.732;2023-06-10T09:44:24;101051.24;;;39.56;9.88
69219;BME280;56232;53.384;-2.732;2023-06-10T09:46:50;101045.56;;;39.93;10.11
69219;BME280;56232;53.384;-2.732;2023-06-10T09:49:16;101047.01;;;40.24;10.35
69219;BME280;56232;53.384;-2.732;2023-06-10T09:51:49;101045.66;;;39.92;10.32
69219;BME280;56232;53.384;-2.732;2023-06-10T09:54:06;101041.46;;;39.61;10.13
69219;BME280;56232;53.384;-2.732;2023-06-10T09:56:33;101043.36;;;40.41;10.14
69219;BME280;56232;53.384;-2.732;2023-06-10T09:58:57;101045.00;;;40.30;10.23
69219;BME280;56232;53.384;-2.732;2023-06-10T10:01:22;101042.76;;;40.31;10.23
69219;BME280;56232;53.384;-2.732;2023-06-10T10:03:49;101049.81;;;40.96;9.94
69219;BME280;56232;53.384;-2.732;2023-06-10T10:06:14;101047.34;;;40.47;10.30
69219;BME280;56232;53.384;-2.732;2023-06-10T10:08:39;101043.47;;;39.72;10.61
69219;BME280;56232;53.384;-2.732;2023-06-10T10:11:04;101041.89;;;39.55;10.71
69219;BME280;56232;53.384;-2.732;2023-06-10T10:13:29;101039.95;;;39.82;10.92
69219;BME280;56232;53.384;-2.732;2023-06-10T10:15:56;101037.21;;;40.27;11.04
69219;BME280;56232;53.384;-2.732;2023-06-10T10:18:20;101035.75;;;39.91;10.73
69219;BME280;56232;53.384;-2.732;2023-06-10T10:20:47;101037.51;;;39.23;10.99
69219;BME280;56232;53.384;-2.732;2023-06-10T10:23:12;101034.93;;;40.68;10.81
69219;BME280;56232;53.384;-2.732;2023-06-10T10:25:38;101034.07;;;40.25;10.60
69219;BME280;56232;53.384;-2.732;2023-06-10T10:28:08;101030.90;;;40.01;10.93
69219;BME280;56232;53.384;-2.732;2023-06-10T10:30:30;101031.59;;;39.26;10.92
69219;BME280;56232;53.384;-2.732;2023-06-10T10:32:57;101024.56;;;40.08;11.07
69219;BME280;56232;53.384;-2.732;2023-06-10T10:35:21;101029.44;;;39.78;10.98
69219;BME280;56232;53.384;-2.732;2023-06-10T10:37:44;101029.80;;;38.99;11.43
69219;BME280;56232;53.384;-2.732;2023-06-10T10:40:10;101026.38;;;38.83;11.28
69219;BME280;56232;53.384;-2.732;2023-06-10T10:42:35;101026.02;;;39.70;11.83
69219;BME280;56232;53.384;-2.732;2023-06-10T10:45:00;101025.19;;;39.56;11.69
69219;BME280;56232;53.384;-2.732;2023-06-10T10:47:27;101023.58;;;39.36;11.72
69219;BME280;56232;53.384;-2.732;2023-06-10T10:49:51;101022.41;;;39.47;12.11
69219;BME280;56232;53.384;-2.732;2023-06-10T10:52:16;101021.17;;;38.88;11.86
69219;BME280;56232;53.384;-2.732;2023-06-10T10:54:45;101015.30;;;38.53;11.73
69219;BME280;56232;53.384;-2.732;2023-06-10T10:57:11;101011.02;;;38.43;12.18
69219;BME280;56232;53.384;-2.732;2023-06-10T11:01:59;101009.18;;;37.79;13.12
69219;BME280;56232;53.384;-2.732;2023-06-10T11:04:26;101008.27;;;37.78;13.29
69219;BME280;56232;53.384;-2.732;2023-06-10T11:06:53;101010.41;;;36.93;13.31
69219;BME280;56232;53.384;-2.732;2023-06-10T11:11:49;101001.33;;;35.65;14.21
69219;BME280;56232;53.384;-2.732;2023-06-10T11:14:07;100998.17;;;35.89;14.29
69219;BME280;56232;53.384;-2.732;2023-06-10T11:16:42;100992.51;;;35.85;14.53
69219;BME280;56232;53.384;-2.732;2023-06-10T11:18:57;100990.03;;;35.49;14.52
69219;BME280;56232;53.384;-2.732;2023-06-10T11:21:24;100986.78;;;35.92;14.65
69219;BME280;56232;53.384;-2.732;2023-06-10T11:23:50;100991.48;;;35.44;15.20
69219;BME280;56232;53.384;-2.732;2023-06-10T11:26:17;100988.48;;;34.80;15.16
69219;BME280;56232;53.384;-2.732;2023-06-10T11:28:39;100988.87;;;33.94;15.63
69219;BME280;56232;53.384;-2.732;2023-06-10T11:31:05;100985.06;;;33.83;15.59
69219;BME280;56232;53.384;-2.732;2023-06-10T11:33:31;100984.19;;;34.93;15.85
69219;BME280;56232;53.384;-2.732;2023-06-10T11:35:56;100981.69;;;35.03;15.76
69219;BME280;56232;53.384;-2.732;2023-06-10T11:38:21;100978.68;;;34.42;15.80
69219;BME280;56232;53.384;-2.732;2023-06-10T11:40:48;100983.71;;;34.34;16.42
69219;BME280;56232;53.384;-2.732;2023-06-10T11:43:12;100975.48;;;34.42;16.18
69219;BME280;56232;53.384;-2.732;2023-06-10T11:45:41;100974.88;;;33.59;16.47
69219;BME280;56232;53.384;-2.732;2023-06-10T11:48:03;100971.12;;;34.04;16.35
69219;BME280;56232;53.384;-2.732;2023-06-10T11:50:30;100964.16;;;33.13;16.67
69219;BME280;56232;53.384;-2.732;2023-06-10T11:52:54;100956.31;;;32.99;16.84
69219;BME280;56232;53.384;-2.732;2023-06-10T11:55:19;100954.72;;;33.68;16.95
69219;BME280;56232;53.384;-2.732;2023-06-10T11:57:45;100959.48;;;33.30;16.47
69219;BME280;56232;53.384;-2.732;2023-06-10T12:00:11;100953.69;;;33.65;16.93
69219;BME280;56232;53.384;-2.732;2023-06-10T12:02:35;100952.70;;;33.07;17.36
69219;BME280;56232;53.384;-2.732;2023-06-10T12:07:26;100956.61;;;33.46;17.02
69219;BME280;56232;53.384;-2.732;2023-06-10T12:09:58;100954.69;;;34.42;16.80
69219;BME280;56232;53.384;-2.732;2023-06-10T12:12:16;100953.49;;;33.70;17.06
69219;BME280;56232;53.384;-2.732;2023-06-10T12:17:07;100953.02;;;34.32;16.75
69219;BME280;56232;53.384;-2.732;2023-06-10T12:19:38;100951.36;;;34.92;16.52
69219;BME280;56232;53.384;-2.732;2023-06-10T12:22:01;100944.74;;;35.21;16.59
69219;BME280;56232;53.384;-2.732;2023-06-10T12:24:23;100946.85;;;34.88;16.73
69219;BME280;56232;53.384;-2.732;2023-06-10T12:26:59;100942.00;;;35.10;16.26
69219;BME280;56232;53.384;-2.732;2023-06-10T12:29:20;100943.21;;;34.46;16.20
69219;BME280;56232;53.384;-2.732;2023-06-10T12:34:09;100937.38;;;34.05;15.92
69219;BME280;56232;53.384;-2.732;2023-06-10T12:36:31;100934.54;;;33.93;16.37
69219;BME280;56232;53.384;-2.732;2023-06-10T12:39:02;100933.32;;;34.95;16.86
69219;BME280;56232;53.384;-2.732;2023-06-10T12:41:22;100929.41;;;34.76;16.65
69219;BME280;56232;53.384;-2.732;2023-06-10T12:43:48;100919.89;;;34.72;16.64